Time;durP1;ratioP1;P1;durP2;ratioP2;P2;SDS_P1;SDS_P2;PMS_P1;PMS_P2;Temp;Humidity;BMP_temperature;BMP_pressure;BME280_temperature;BME280_humidity;BME280_pressure;Samples;Min_cycle;Max_cycle;Signal;HPM_P1;HPM_P2
2023/03/30 00:02:21;;;;;;;3.13;1.63;;;18.30;46.30;;;;;;5092357;28;45582;-72
2023/03/30 00:04:48;;;;;;;3.95;1.58;;;18.30;46.30;;;;;;5091975;28;46558;-72
2023/03/30 00:07:16;;;;;;;5.85;2.30;;;18.30;46.30;;;;;;5092003;28;45308;-72
2023/03/30 00:09:43;;;;;;;3.70;1.60;;;18.30;46.30;;;;;;5092249;28;45320;-72
2023/03/30 00:12:10;;;;;;;3.65;1.83;;;18.30;46.20;;;;;;5092364;28;45247;-72
2023/03/30 00:14:37;;;;;;;3.70;1.58;;;18.20;46.20;;;;;;5091822;28;45323;-72
2023/03/30 00:17:03;;;;;;;4.50;2.13;;;18.20;46.20;;;;;;5091822;28;45321;-72
2023/03/30 00:19:30;;;;;;;3.47;1.92;;;18.20;46.20;;;;;;5092188;28;45432;-72
2023/03/30 00:21:57;;;;;;;3.53;1.73;;;18.20;46.20;;;;;;5092044;28;45391;-71
2023/03/30 00:24:25;;;;;;;2.30;1.40;;;18.20;46.30;;;;;;5091784;28;45570;-72
2023/03/30 00:26:52;;;;;;;4.25;1.73;;;18.20;46.20;;;;;;5091437;28;45326;-72
2023/03/30 00:29:19;;;;;;;2.55;1.40;;;18.20;46.30;;;;;;5092131;28;45327;-72
2023/03/30 00:31:46;;;;;;;3.15;1.45;;;18.20;46.20;;;;;;5092007;28;45352;-72
2023/03/30 00:34:12;;;;;;;4.63;2.08;;;18.10;46.10;;;;;;5091743;28;45387;-72
2023/03/30 00:36:39;;;;;;;3.90;1.80;;;18.20;46.20;;;;;;5091542;28;45256;-71
2023/03/30 00:39:07;;;;;;;5.35;1.60;;;18.20;46.20;;;;;;5091844;28;45265;-72
2023/03/30 00:41:35;;;;;;;5.35;2.03;;;18.20;46.20;;;;;;5092016;28;45309;-72
2023/03/30 00:44:03;;;;;;;2.45;1.30;;;18.10;46.10;;;;;;5089992;27;47883;-72
2023/03/30 00:46:30;;;;;;;4.93;1.30;;;18.10;46.70;;;;;;5088179;28;45282;-72
2023/03/30 00:48:58;;;;;;;4.30;1.40;;;18.10;46.10;;;;;;5088395;28;45285;-72
2023/03/30 00:51:26;;;;;;;5.80;1.88;;;18.10;46.10;;;;;;5088552;28;45410;-72
2023/03/30 00:53:54;;;;;;;3.33;1.83;;;18.10;46.10;;;;;;5087698;28;46654;-72
2023/03/30 00:56:23;;;;;;;3.50;2.00;;;18.10;46.20;;;;;;5087924;28;45331;-72
2023/03/30 00:58:51;;;;;;;3.28;1.73;;;18.10;46.10;;;;;;5088321;28;45416;-72
2023/03/30 01:01:24;;;;;;;4.03;1.58;;;18.10;46.10;;;;;;5088475;28;45240;-72
2023/03/30 01:03:51;;;;;;;3.83;1.70;;;18.10;46.00;;;;;;5087867;28;45346;-72
2023/03/30 01:06:20;;;;;;;3.80;1.27;;;18.10;46.10;;;;;;5087928;28;45258;-72
2023/03/30 01:08:48;;;;;;;3.58;1.60;;;18.10;46.10;;;;;;5088066;28;45308;-72
2023/03/30 01:11:14;;;;;;;3.17;1.75;;;18.10;46.20;;;;;;5088218;28;45359;-72
2023/03/30 01:13:43;;;;;;;4.07;1.60;;;18.10;46.10;;;;;;5087737;28;45313;-72
2023/03/30 01:16:17;;;;;;;2.67;1.67;;;18.10;46.00;;;;;;5087659;28;45335;-72
2023/03/30 01:18:48;;;;;;;3.50;1.65;;;18.10;46.10;;;;;;5087901;28;44679;-72
2023/03/30 01:21:35;;;;;;;2.55;1.40;;;18.10;46.10;;;;;;5088048;28;45451;-71
2023/03/30 01:24:47;;;;;;;2.95;1.38;;;18.10;46.00;;;;;;5078107;28;46653;-71
2023/03/30 01:27:23;;;;;;;3.42;1.75;;;18.10;46.00;;;;;;5067194;28;45318;-72
2023/03/30 01:30:02;;;;;;;6.05;1.70;;;18.10;46.00;;;;;;5067318;28;45482;-71
2023/03/30 01:33:14;;;;;;;3.60;1.67;;;18.10;46.00;;;;;;5067528;28;45514;-71
2023/03/30 01:35:53;;;;;;;3.90;1.98;;;18.10;46.00;;;;;;5050813;28;45431;-71
2023/03/30 01:38:36;;;;;;;4.25;1.40;;;18.10;46.00;;;;;;5067039;28;45297;-72
2023/03/30 01:41:09;;;;;;;2.83;1.50;;;18.10;46.00;;;;;;5067258;28;45265;-72
2023/03/30 01:43:38;;;;;;;2.70;1.75;;;18.10;46.00;;;;;;5067365;28;45332;-71
2023/03/30 01:46:07;;;;;;;3.10;1.60;;;18.10;46.00;;;;;;5066824;28;45653;-71
2023/03/30 01:48:38;;;;;;;4.63;1.50;;;18.10;46.00;;;;;;5066961;28;45390;-71
2023/03/30 01:51:06;;;;;;;2.40;1.60;;;18.00;45.90;;;;;;5067128;28;45310;-71
2023/03/30 01:53:34;;;;;;;4.57;1.52;;;18.00;46.00;;;;;;5067235;28;45497;-71
2023/03/30 01:56:02;;;;;;;2.63;1.60;;;18.00;46.00;;;;;;5065267;28;46409;-71
2023/03/30 01:58:31;;;;;;;4.05;1.60;;;18.00;46.10;;;;;;5066800;28;45337;-71
2023/03/30 02:00:58;;;;;;;2.90;1.70;;;18.00;46.30;;;;;;5066966;28;45387;-71
2023/03/30 02:03:26;;;;;;;2.40;1.45;;;18.00;46.30;;;;;;5066975;28;45310;-71
2023/03/30 02:05:55;;;;;;;3.95;1.55;;;18.00;46.30;;;;;;5066585;28;47325;-71
2023/03/30 02:08:23;;;;;;;3.83;1.60;;;17.90;46.20;;;;;;5066588;28;45301;-70
2023/03/30 02:10:50;;;;;;;3.72;1.40;;;17.90;47.00;;;;;;5066936;28;45412;-71
2023/03/30 02:13:17;;;;;;;4.78;1.67;;;17.90;47.30;;;;;;5066952;28;45455;-71
2023/03/30 02:15:47;;;;;;;2.53;1.50;;;17.90;47.30;;;;;;5066321;28;47254;-71
2023/03/30 02:18:14;;;;;;;3.45;1.25;;;17.90;47.50;;;;;;5066375;28;45447;-71
2023/03/30 02:20:41;;;;;;;5.90;1.70;;;17.90;47.80;;;;;;5066557;28;45271;-71
2023/03/30 02:23:08;;;;;;;5.43;1.55;;;17.90;47.60;;;;;;5066882;28;45238;-71
2023/03/30 02:25:37;;;;;;;5.50;1.50;;;17.90;47.80;;;;;;5074291;28;46404;-71
2023/03/30 02:28:03;;;;;;;4.30;1.70;;;17.90;47.90;;;;;;5086495;28;45426;-70
2023/03/30 02:30:32;;;;;;;5.35;1.92;;;17.90;47.80;;;;;;5086752;28;45301;-71
2023/03/30 02:33:00;;;;;;;3.22;1.50;;;17.90;48.20;;;;;;5086968;28;45268;-71
2023/03/30 02:35:41;;;;;;;4.90;1.17;;;17.80;48.10;;;;;;5086354;28;45483;-71
2023/03/30 02:38:41;;;;;;;3.53;1.50;;;17.90;48.20;;;;;;5086380;28;45342;-71
2023/03/30 02:41:13;;;;;;;3.65;1.75;;;17.90;48.20;;;;;;5086650;28;45322;-71
2023/03/30 02:43:45;;;;;;;6.03;1.42;;;17.80;48.00;;;;;;5086750;28;45476;-70
2023/03/30 02:46:20;;;;;;;2.58;1.38;;;17.90;48.70;;;;;;5086224;28;46443;-71
2023/03/30 02:48:52;;;;;;;2.28;1.67;;;17.80;48.40;;;;;;5086499;28;45300;-71
2023/03/30 02:51:33;;;;;;;3.33;1.40;;;17.80;48.90;;;;;;5086513;28;45332;-71
2023/03/30 02:54:02;;;;;;;3.50;1.73;;;17.80;48.80;;;;;;5086582;28;45337;-71
2023/03/30 02:56:36;;;;;;;7.00;2.03;;;17.80;48.60;;;;;;5085957;28;46324;-72
2023/03/30 02:59:04;;;;;;;3.35;1.38;;;17.80;48.50;;;;;;5086294;28;45387;-72
2023/03/30 03:01:33;;;;;;;4.68;1.50;;;17.80;48.50;;;;;;5086286;28;45384;-72
2023/03/30 03:04:02;;;;;;;3.17;1.40;;;17.80;48.50;;;;;;5086632;28;45273;-73
2023/03/30 03:06:31;;;;;;;3.03;1.33;;;17.80;48.80;;;;;;5085918;28;47584;-70
2023/03/30 03:08:57;;;;;;;3.20;1.38;;;17.80;49.10;;;;;;5085707;28;45393;-72
2023/03/30 03:11:24;;;;;;;4.65;1.42;;;17.80;49.10;;;;;;5086293;28;45249;-73
2023/03/30 03:13:51;;;;;;;4.47;1.88;;;17.70;48.60;;;;;;5086333;28;45450;-72
2023/03/30 03:16:18;;;;;;;4.13;1.63;;;17.80;48.60;;;;;;5085762;28;46378;-73
2023/03/30 03:18:45;;;;;;;3.83;1.70;;;17.70;48.70;;;;;;5085871;28;45359;-72
2023/03/30 03:21:13;;;;;;;4.63;1.73;;;17.70;48.70;;;;;;5085985;28;45354;-72
2023/03/30 03:23:40;;;;;;;4.95;1.65;;;17.70;48.70;;;;;;5086141;28;45624;-72
2023/03/30 03:26:07;;;;;;;3.63;1.88;;;17.80;48.60;;;;;;5085395;28;45492;-72
2023/03/30 03:28:34;;;;;;;4.40;1.88;;;17.70;48.50;;;;;;5085636;28;45364;-72
2023/03/30 03:31:02;;;;;;;3.88;1.70;;;17.80;48.70;;;;;;5085801;28;45547;-72
2023/03/30 03:33:30;;;;;;;3.95;1.45;;;17.80;49.10;;;;;;5086082;28;45258;-72
2023/03/30 03:35:58;;;;;;;2.58;1.48;;;17.70;48.80;;;;;;5085665;28;45286;-72
2023/03/30 03:38:27;;;;;;;6.38;1.83;;;17.70;48.50;;;;;;5085620;28;45305;-72
2023/03/30 03:40:54;;;;;;;3.15;1.55;;;17.70;48.50;;;;;;5086067;28;45337;-72
2023/03/30 03:43:21;;;;;;;3.35;1.65;;;17.70;48.80;;;;;;5085962;28;45373;-72
2023/03/30 03:45:49;;;;;;;6.03;1.42;;;17.70;48.70;;;;;;5085417;28;46389;-73
2023/03/30 03:48:16;;;;;;;4.28;1.75;;;17.60;48.80;;;;;;5085595;28;45360;-73
2023/03/30 03:50:43;;;;;;;3.80;1.40;;;17.70;48.70;;;;;;5085658;28;45350;-72
2023/03/30 03:53:10;;;;;;;4.13;1.40;;;17.70;48.60;;;;;;5085976;28;45182;-73
2023/03/30 03:55:40;;;;;;;3.25;1.65;;;17.60;48.60;;;;;;5085305;28;46670;-72
2023/03/30 03:58:07;;;;;;;4.05;1.48;;;17.60;48.60;;;;;;5085477;28;45628;-73
2023/03/30 04:00:34;;;;;;;2.40;1.33;;;17.60;48.50;;;;;;5085516;28;45285;-73
2023/03/30 04:03:00;;;;;;;3.95;1.90;;;17.60;48.40;;;;;;5085784;28;45418;-72
2023/03/30 04:05:27;;;;;;;3.38;1.48;;;17.60;48.40;;;;;;5085262;28;45461;-72
2023/03/30 04:07:55;;;;;;;4.93;1.73;;;17.60;48.40;;;;;;5085158;28;45426;-72
2023/03/30 04:10:22;;;;;;;3.55;1.55;;;17.60;48.50;;;;;;5085527;28;45395;-72
2023/03/30 04:12:50;;;;;;;2.30;1.23;;;17.60;48.40;;;;;;5085534;28;45273;-73
2023/03/30 04:15:17;;;;;;;1.75;1.48;;;17.60;48.40;;;;;;5085209;28;45471;-73
2023/03/30 04:17:48;;;;;;;2.08;1.40;;;17.60;48.30;;;;;;5084986;28;45307;-73
2023/03/30 04:20:15;;;;;;;2.75;1.48;;;17.60;48.90;;;;;;5087263;27;45269;-72
2023/03/30 04:22:45;;;;;;;6.38;1.30;;;17.60;48.20;;;;;;5089071;28;45283;-73
2023/03/30 04:25:13;;;;;;;4.57;1.67;;;17.60;48.20;;;;;;5088454;28;45581;-72
2023/03/30 04:27:41;;;;;;;3.45;1.38;;;17.60;48.20;;;;;;5088625;28;45330;-72
2023/03/30 04:30:10;;;;;;;4.25;1.73;;;17.60;48.20;;;;;;5088575;28;45383;-73
2023/03/30 04:32:38;;;;;;;3.35;1.60;;;17.50;48.10;;;;;;5088857;28;45379;-72
2023/03/30 04:35:05;;;;;;;2.58;1.05;;;17.50;48.10;;;;;;5088436;28;45273;-72
2023/03/30 04:37:34;;;;;;;4.72;1.50;;;17.50;48.00;;;;;;5088215;28;45154;-72
2023/03/30 04:40:01;;;;;;;4.78;1.77;;;17.50;48.00;;;;;;5088503;28;45347;-72
2023/03/30 04:42:32;;;;;;;3.03;1.45;;;17.50;47.90;;;;;;5088578;28;45455;-72
2023/03/30 04:44:59;;;;;;;3.88;1.30;;;17.50;48.00;;;;;;5088229;28;46384;-72
2023/03/30 04:47:28;;;;;;;3.42;1.20;;;17.50;48.00;;;;;;5088027;28;45443;-72
2023/03/30 04:49:55;;;;;;;2.97;1.05;;;17.50;47.90;;;;;;5088400;28;45269;-72
2023/03/30 04:52:22;;;;;;;2.00;1.50;;;17.50;47.90;;;;;;5088567;28;45315;-72
2023/03/30 04:54:48;;;;;;;3.08;1.92;;;17.50;48.50;;;;;;5088033;28;45486;-72
2023/03/30 04:57:15;;;;;;;3.78;1.70;;;17.50;47.90;;;;;;5087959;28;45254;-72
2023/03/30 04:59:42;;;;;;;4.80;1.55;;;17.50;47.90;;;;;;5088375;28;45363;-72
2023/03/30 05:02:10;;;;;;;4.65;1.40;;;17.50;47.90;;;;;;5088304;28;45246;-72
2023/03/30 05:04:38;;;;;;;4.80;1.65;;;17.50;47.80;;;;;;5087973;28;45624;-72
2023/03/30 05:07:05;;;;;;;2.65;1.30;;;17.40;47.80;;;;;;5087867;28;45316;-72
2023/03/30 05:09:33;;;;;;;3.03;1.10;;;17.50;47.80;;;;;;5088091;28;45379;-72
2023/03/30 05:12:00;;;;;;;4.05;1.23;;;17.50;47.80;;;;;;5088132;28;45289;-72
2023/03/30 05:14:26;;;;;;;2.50;1.27;;;17.50;47.70;;;;;;5087843;28;47509;-72
2023/03/30 05:16:53;;;;;;;4.70;1.30;;;17.40;47.70;;;;;;5087584;28;45286;-73
2023/03/30 05:19:20;;;;;;;3.00;1.17;;;17.40;47.70;;;;;;5087916;28;45314;-72
2023/03/30 05:21:48;;;;;;;3.85;1.20;;;17.40;47.70;;;;;;5088034;28;45368;-71
2023/03/30 05:24:15;;;;;;;3.70;1.65;;;17.40;47.70;;;;;;5084858;28;46147;-72
2023/03/30 05:26:42;;;;;;;2.70;1.58;;;17.40;47.70;;;;;;5087367;28;45332;-72
2023/03/30 05:29:09;;;;;;;2.47;1.30;;;17.40;47.70;;;;;;5087787;28;45364;-72
2023/03/30 05:31:36;;;;;;;3.95;1.65;;;17.40;47.70;;;;;;5087530;27;45313;-72
2023/03/30 05:34:03;;;;;;;2.42;1.42;;;17.40;47.70;;;;;;5087411;28;46418;-72
2023/03/30 05:36:30;;;;;;;5.88;1.40;;;17.40;47.70;;;;;;5087195;28;45278;-72
2023/03/30 05:38:59;;;;;;;3.17;1.30;;;17.40;47.70;;;;;;5087553;28;45297;-73
2023/03/30 05:41:26;;;;;;;2.72;1.42;;;17.40;47.60;;;;;;5087735;28;45311;-72
2023/03/30 05:43:53;;;;;;;3.15;1.20;;;17.30;47.60;;;;;;5087408;28;46668;-73
2023/03/30 05:46:20;;;;;;;3.10;1.13;;;17.30;47.60;;;;;;5087291;28;45438;-72
2023/03/30 05:48:47;;;;;;;4.22;1.20;;;17.40;48.20;;;;;;5087415;28;45259;-73
2023/03/30 05:51:14;;;;;;;3.38;1.52;;;17.40;47.70;;;;;;5087677;28;45574;-72
2023/03/30 05:53:41;;;;;;;2.88;1.38;;;17.40;47.70;;;;;;5087140;28;45297;-72
2023/03/30 05:56:10;;;;;;;2.65;1.27;;;17.40;47.70;;;;;;5086948;28;45333;-72
2023/03/30 05:58:37;;;;;;;2.83;1.33;;;17.40;47.60;;;;;;5087223;28;45367;-72
2023/03/30 06:01:04;;;;;;;3.70;1.70;;;17.40;47.60;;;;;;5087523;28;45273;-73
2023/03/30 06:03:31;;;;;;;1.88;1.15;;;17.40;47.60;;;;;;5086710;28;45472;-73
2023/03/30 06:05:58;;;;;;;1.50;1.15;;;17.40;47.70;;;;;;5086892;28;45306;-73
2023/03/30 06:08:26;;;;;;;2.88;1.10;;;17.30;47.60;;;;;;5087005;28;45348;-72
2023/03/30 06:10:53;;;;;;;4.68;1.67;;;17.30;47.60;;;;;;5087206;28;45133;-72
2023/03/30 06:13:21;;;;;;;4.00;1.45;;;17.30;47.60;;;;;;5086735;28;45345;-73
2023/03/30 06:15:48;;;;;;;2.17;1.33;;;17.30;47.60;;;;;;5086781;28;45424;-73
2023/03/30 06:18:15;;;;;;;2.90;1.23;;;17.30;47.60;;;;;;5086833;28;45374;-72
2023/03/30 06:20:42;;;;;;;2.53;1.17;;;17.30;47.60;;;;;;5087095;28;45334;-73
2023/03/30 06:23:08;;;;;;;2.53;1.48;;;17.30;47.60;;;;;;5086580;28;45262;-72
2023/03/30 06:25:35;;;;;;;3.17;1.30;;;17.30;47.80;;;;;;5086258;28;45332;-72
2023/03/30 06:28:03;;;;;;;2.45;1.25;;;17.30;47.90;;;;;;5086784;28;44817;-72
2023/03/30 06:30:31;;;;;;;1.35;1.20;;;17.30;47.70;;;;;;5086928;28;45476;-72
2023/03/30 06:32:58;;;;;;;3.13;1.33;;;17.30;47.60;;;;;;5086485;28;46681;-71
2023/03/30 06:35:24;;;;;;;2.13;1.20;;;17.30;47.60;;;;;;5086457;28;45262;-72
2023/03/30 06:37:51;;;;;;;2.88;1.20;;;17.30;47.70;;;;;;5097081;27;45295;-72
2023/03/30 06:40:18;;;;;;;2.83;1.25;;;17.30;47.60;;;;;;5101170;27;45506;-72
2023/03/30 06:42:45;;;;;;;3.65;1.20;;;17.30;47.60;;;;;;5085428;27;45388;-71
2023/03/30 06:45:12;;;;;;;2.20;1.40;;;17.30;47.60;;;;;;5099528;27;45670;-72
2023/03/30 06:47:41;;;;;;;3.28;1.40;;;17.30;47.70;;;;;;5087176;27;45249;-72
2023/03/30 06:50:08;;;;;;;2.33;1.27;;;17.30;47.70;;;;;;5086075;27;45525;-72
2023/03/30 06:52:35;;;;;;;1.25;1.15;;;17.30;47.60;;;;;;5086328;27;46816;-72
2023/03/30 06:55:02;;;;;;;3.28;1.40;;;17.30;47.60;;;;;;5086924;27;45315;-72
2023/03/30 06:57:29;;;;;;;3.50;1.42;;;17.30;47.60;;;;;;5086210;27;45363;-72
2023/03/30 06:59:56;;;;;;;2.47;1.20;;;17.30;47.60;;;;;;5086600;27;45246;-72
2023/03/30 07:02:24;;;;;;;4.05;1.45;;;17.30;47.70;;;;;;5086086;28;47002;-72
2023/03/30 07:04:52;;;;;;;4.05;1.30;;;17.30;48.10;;;;;;5088209;27;45343;-72
2023/03/30 07:07:19;;;;;;;4.07;1.27;;;17.30;47.90;;;;;;5100155;27;45260;-72
2023/03/30 07:09:46;;;;;;;7.57;1.40;;;17.30;48.10;;;;;;5097975;27;45422;-72
2023/03/30 07:12:13;;;;;;;1.98;1.50;;;17.30;48.20;;;;;;5086616;28;47670;-72
2023/03/30 07:14:40;;;;;;;3.20;1.23;;;17.30;48.10;;;;;;5086836;27;45393;-72
2023/03/30 07:17:07;;;;;;;2.17;1.25;;;17.30;48.20;;;;;;5086924;27;45389;-72
2023/03/30 07:19:34;;;;;;;3.15;1.25;;;17.30;48.60;;;;;;5090313;27;45447;-73
2023/03/30 07:22:02;;;;;;;3.35;1.40;;;17.30;48.50;;;;;;5087044;27;45288;-71
2023/03/30 07:24:30;;;;;;;4.97;1.30;;;17.30;48.60;;;;;;5086741;27;45383;-71
2023/03/30 07:26:57;;;;;;;2.35;1.27;;;17.30;48.80;;;;;;5085549;28;45294;-70
2023/03/30 07:29:24;;;;;;;4.50;1.50;;;17.30;48.80;;;;;;5083473;27;45195;-71
2023/03/30 07:31:50;;;;;;;1.58;1.15;;;17.30;48.90;;;;;;5086618;27;45462;-71
2023/03/30 07:34:17;;;;;;;5.00;1.35;;;17.30;49.10;;;;;;5086637;27;45254;-70
2023/03/30 07:36:44;;;;;;;2.38;1.10;;;17.30;48.90;;;;;;5085580;28;45329;-71
2023/03/30 07:39:12;;;;;;;4.82;1.60;;;17.30;49.10;;;;;;5085772;27;45371;-71
2023/03/30 07:41:39;;;;;;;2.13;1.00;;;17.30;49.00;;;;;;5097091;27;46149;-70
2023/03/30 07:44:06;;;;;;;1.85;1.10;;;17.20;49.00;;;;;;5085419;28;45236;-71
2023/03/30 07:46:33;;;;;;;4.15;1.50;;;17.30;49.00;;;;;;5086465;27;45407;-70
2023/03/30 07:49:00;;;;;;;2.72;1.10;;;17.30;49.20;;;;;;5089703;27;45400;-70
2023/03/30 07:51:27;;;;;;;2.60;1.02;;;17.20;49.00;;;;;;5098618;27;48375;-71
2023/03/30 07:53:53;;;;;;;3.22;1.23;;;17.20;49.00;;;;;;5088255;27;45391;-70
2023/03/30 07:56:22;;;;;;;3.25;1.45;;;17.20;48.90;;;;;;5089148;28;45253;-71
2023/03/30 07:58:48;;;;;;;3.03;1.20;;;17.20;49.10;;;;;;5101917;27;45499;-71
2023/03/30 08:01:15;;;;;;;2.80;1.15;;;17.20;49.00;;;;;;5105184;27;45411;-71
2023/03/30 08:03:43;;;;;;;2.33;1.30;;;17.20;49.00;;;;;;5109022;27;45379;-70
2023/03/30 08:06:11;;;;;;;3.65;1.20;;;17.20;48.90;;;;;;5098020;27;45474;-71
2023/03/30 08:08:39;;;;;;;2.10;1.00;;;17.20;48.90;;;;;;5097061;27;45217;-71
2023/03/30 08:11:07;;;;;;;3.28;1.55;;;17.20;48.90;;;;;;5107435;27;45480;-71
2023/03/30 08:13:36;;;;;;;3.92;1.20;;;17.20;49.00;;;;;;5101786;27;45455;-71
2023/03/30 08:16:03;;;;;;;2.45;1.40;;;17.20;49.00;;;;;;5089611;27;45277;-71
2023/03/30 08:18:30;;;;;;;2.88;1.48;;;17.20;49.10;;;;;;5107526;27;45370;-71
2023/03/30 08:20:57;;;;;;;3.50;1.65;;;17.20;48.90;;;;;;5100842;27;46979;-70
2023/03/30 08:23:24;;;;;;;2.05;1.27;;;17.20;49.20;;;;;;5107269;27;45468;-71
2023/03/30 08:25:51;;;;;;;3.85;1.38;;;17.20;49.40;;;;;;5094272;27;45396;-71
2023/03/30 08:28:18;;;;;;;3.25;1.40;;;17.20;49.60;;;;;;5089568;27;45308;-71
2023/03/30 08:30:47;;;;;;;4.00;1.40;;;17.20;49.40;;;;;;5087043;28;45373;-71
2023/03/30 08:33:14;;;;;;;4.80;1.50;;;17.20;50.30;;;;;;5088477;28;45290;-71
2023/03/30 08:35:41;;;;;;;5.82;1.38;;;17.20;49.80;;;;;;5072068;28;45383;-70
2023/03/30 08:38:08;;;;;;;3.20;1.55;;;17.20;49.60;;;;;;5088197;27;45259;-71
2023/03/30 08:40:39;;;;;;;2.90;1.27;;;17.10;49.70;;;;;;5106730;27;46424;-71
2023/03/30 08:43:30;;;;;;;2.85;1.35;;;17.10;49.70;;;;;;5108900;27;45296;-71
2023/03/30 08:45:59;;;;;;;3.30;1.17;;;17.10;49.70;;;;;;5089763;27;45447;-71
2023/03/30 08:48:28;;;;;;;5.90;1.33;;;17.10;49.50;;;;;;5088531;27;45356;-71
2023/03/30 08:50:57;;;;;;;3.08;1.15;;;17.10;49.50;;;;;;5108579;27;45459;-71
2023/03/30 08:53:24;;;;;;;3.50;1.25;;;17.10;49.30;;;;;;5108707;27;45369;-71
2023/03/30 08:55:52;;;;;;;2.78;1.50;;;17.10;49.10;;;;;;5107022;27;45207;-71
2023/03/30 08:58:22;;;;;;;2.55;1.40;;;17.10;49.00;;;;;;5100791;27;45312;-70
2023/03/30 09:00:50;;;;;;;5.13;1.70;;;17.10;49.10;;;;;;5067571;28;46893;-71
2023/03/30 09:03:25;;;;;;;2.55;1.30;;;17.10;49.70;;;;;;5075031;27;45608;-71
2023/03/30 09:05:54;;;;;;;2.95;1.35;;;17.10;49.10;;;;;;5087303;27;45351;-71
2023/03/30 09:08:21;;;;;;;2.15;1.58;;;17.10;49.10;;;;;;5105448;27;45431;-71
2023/03/30 09:10:51;;;;;;;2.72;1.35;;;17.10;49.10;;;;;;5088226;27;46408;-71
2023/03/30 09:13:19;;;;;;;2.45;1.10;;;17.10;49.10;;;;;;5102349;27;45424;-71
2023/03/30 09:15:48;;;;;;;1.67;1.38;;;17.00;49.10;;;;;;5108614;27;45460;-71
2023/03/30 09:18:17;;;;;;;3.80;1.20;;;17.10;49.40;;;;;;5092758;27;45260;-71
2023/03/30 09:20:45;;;;;;;3.35;1.73;;;17.10;49.40;;;;;;5098194;27;45253;-70
2023/03/30 09:23:13;;;;;;;1.98;1.15;;;17.10;49.50;;;;;;5089376;27;45446;-71
2023/03/30 09:25:43;;;;;;;1.35;0.95;;;17.10;49.50;;;;;;5107850;27;45310;-71
2023/03/30 09:28:14;;;;;;;2.65;1.38;;;17.10;49.40;;;;;;5094657;27;45572;-71
2023/03/30 09:30:41;;;;;;;2.08;1.58;;;17.10;49.60;;;;;;5086637;27;45477;-71
2023/03/30 09:33:16;;;;;;;2.58;1.15;;;17.10;49.70;;;;;;5072964;27;45312;-71
2023/03/30 09:35:49;;;;;;;1.85;1.23;;;17.10;49.60;;;;;;5104854;27;45400;-70
2023/03/30 09:38:16;;;;;;;3.22;1.60;;;17.10;50.00;;;;;;5093085;27;45515;-72
2023/03/30 09:41:07;;;;;;;3.72;1.35;;;17.10;49.80;;;;;;5098309;27;47580;-72
2023/03/30 09:43:36;;;;;;;2.70;1.40;;;17.10;49.70;;;;;;5087037;27;45262;-70
2023/03/30 09:46:05;;;;;;;4.60;1.25;;;17.10;49.70;;;;;;5092345;27;45231;-71
2023/03/30 09:48:38;;;;;;;1.98;1.13;;;17.10;50.00;;;;;;5094398;27;45538;-71
2023/03/30 09:51:21;;;;;;;2.35;1.05;;;17.10;49.70;;;;;;5087058;28;45648;-70
2023/03/30 09:53:49;;;;;;;2.22;1.48;;;17.10;50.00;;;;;;5102536;27;45518;-71
2023/03/30 09:56:27;;;;;;;2.45;1.30;;;17.10;50.10;;;;;;5106122;27;45463;-71
2023/03/30 09:58:54;;;;;;;1.58;1.30;;;17.10;50.10;;;;;;5102327;27;45472;-71
2023/03/30 10:01:22;;;;;;;2.42;1.63;;;17.10;50.10;;;;;;5105794;27;46451;-71
2023/03/30 10:04:08;;;;;;;6.47;1.80;;;17.10;50.20;;;;;;5096376;27;45482;-71
2023/03/30 10:06:38;;;;;;;3.67;1.25;;;17.10;50.40;;;;;;5092657;27;45467;-70
2023/03/30 10:09:07;;;;;;;4.00;1.40;;;17.10;50.10;;;;;;5105669;27;45297;-71
2023/03/30 10:11:36;;;;;;;1.77;1.23;;;17.10;50.10;;;;;;5086759;27;45292;-71
2023/03/30 10:14:03;;;;;;;3.13;1.80;;;17.10;50.40;;;;;;5093566;27;45382;-72
2023/03/30 10:16:31;;;;;;;2.40;1.23;;;17.10;50.40;;;;;;5103282;27;45403;-70
2023/03/30 10:19:00;;;;;;;2.53;1.50;;;17.10;50.30;;;;;;5087115;27;45492;-73
2023/03/30 10:21:29;;;;;;;2.08;1.40;;;17.10;51.00;;;;;;5080282;27;45476;-73
2023/03/30 10:24:02;;;;;;;3.10;1.30;;;17.10;50.60;;;;;;5107181;27;45277;-72
2023/03/30 10:26:30;;;;;;;1.55;1.13;;;17.10;50.50;;;;;;5104837;27;45404;-71
2023/03/30 10:29:01;;;;;;;1.10;0.98;;;17.10;50.40;;;;;;5101206;27;45434;-70
2023/03/30 10:31:28;;;;;;;2.85;1.30;;;17.10;50.60;;;;;;5088519;27;45555;-73
2023/03/30 10:33:56;;;;;;;1.95;1.40;;;17.10;50.40;;;;;;5088184;27;45461;-73
2023/03/30 10:36:23;;;;;;;2.63;1.30;;;17.10;50.30;;;;;;5104502;27;45275;-72
2023/03/30 10:38:50;;;;;;;2.42;1.50;;;17.10;50.40;;;;;;5087154;27;45268;-72
2023/03/30 10:41:20;;;;;;;3.30;1.10;;;17.10;50.50;;;;;;5098100;27;45532;-72
2023/03/30 10:43:48;;;;;;;3.78;2.03;;;17.10;50.40;;;;;;5105102;27;45321;-72
2023/03/30 10:46:15;;;;;;;1.80;1.35;;;17.00;50.30;;;;;;5105231;27;45271;-72
2023/03/30 10:48:52;;;;;;;3.88;1.80;;;17.00;50.40;;;;;;5103871;27;45359;-72
2023/03/30 10:51:24;;;;;;;2.72;1.55;;;17.00;50.50;;;;;;5084235;27;45363;-72
2023/03/30 10:53:53;;;;;;;3.80;1.17;;;17.00;50.90;;;;;;5099335;27;45346;-72
2023/03/30 10:56:26;;;;;;;4.18;1.55;;;17.00;50.30;;;;;;5104523;27;45329;-72
2023/03/30 10:59:14;;;;;;;1.58;1.42;;;17.00;50.50;;;;;;5087508;27;45585;-72
2023/03/30 11:01:45;;;;;;;2.05;1.23;;;17.00;50.30;;;;;;5096303;27;45522;-72
2023/03/30 11:04:15;;;;;;;1.30;1.20;;;17.00;50.60;;;;;;5088538;27;45347;-72
2023/03/30 11:06:42;;;;;;;1.75;1.40;;;17.00;50.50;;;;;;5096851;27;45268;-72
2023/03/30 11:09:13;;;;;;;2.42;1.38;;;17.00;50.70;;;;;;5104848;27;45543;-72
2023/03/30 11:11:44;;;;;;;4.32;1.30;;;17.00;50.90;;;;;;5099488;27;45293;-72
2023/03/30 11:14:13;;;;;;;2.70;1.17;;;17.00;50.70;;;;;;5097872;27;45715;-72
2023/03/30 11:16:46;;;;;;;2.05;1.60;;;17.00;51.20;;;;;;5092070;27;45341;-72
2023/03/30 11:19:14;;;;;;;3.58;1.60;;;17.00;50.70;;;;;;5104760;27;45456;-72
2023/03/30 11:21:42;;;;;;;1.50;1.40;;;17.00;50.70;;;;;;5091224;27;47272;-72
2023/03/30 11:24:11;;;;;;;1.65;1.42;;;17.00;50.70;;;;;;5098529;27;45438;-72
2023/03/30 11:26:39;;;;;;;1.48;1.20;;;17.00;50.70;;;;;;5102534;27;45145;-72
2023/03/30 11:29:16;;;;;;;3.05;1.70;;;17.00;50.70;;;;;;5100515;27;45537;-72
2023/03/30 11:31:49;;;;;;;3.95;1.65;;;17.00;51.30;;;;;;5092781;27;45222;-72
2023/03/30 11:34:21;;;;;;;2.95;1.58;;;16.90;50.80;;;;;;5104469;27;45292;-73
2023/03/30 11:36:51;;;;;;;2.17;1.42;;;17.00;51.10;;;;;;5093724;27;45446;-73
2023/03/30 11:39:19;;;;;;;2.63;1.70;;;17.00;51.20;;;;;;5092318;27;45170;-73
2023/03/30 11:41:48;;;;;;;3.45;1.48;;;17.00;51.20;;;;;;5099287;27;46640;-74
2023/03/30 11:44:16;;;;;;;1.65;1.35;;;17.00;51.30;;;;;;5090534;27;45423;-73
2023/03/30 11:46:46;;;;;;;2.33;1.33;;;17.10;51.30;;;;;;5087669;27;45426;-73
2023/03/30 11:49:29;;;;;;;1.83;1.40;;;17.00;51.30;;;;;;5086878;27;45418;-73
2023/03/30 11:52:12;;;;;;;3.95;1.70;;;17.00;51.20;;;;;;5092648;27;45322;-73
2023/03/30 11:55:16;;;;;;;3.03;1.60;;;17.00;51.60;;;;;;5102625;27;45170;-73
2023/03/30 11:57:44;;;;;;;3.15;1.65;;;17.00;51.80;;;;;;5061252;27;45468;-73
2023/03/30 12:00:42;;;;;;;3.22;1.50;;;17.00;51.70;;;;;;5095847;27;45246;-73
2023/03/30 12:03:16;;;;;;;3.50;1.70;;;17.00;51.70;;;;;;5085087;27;46424;-72
2023/03/30 12:05:44;;;;;;;3.22;1.52;;;17.10;51.50;;;;;;5102300;27;45416;-72
2023/03/30 12:08:19;;;;;;;4.10;1.60;;;17.10;51.50;;;;;;5104115;27;45351;-73
2023/03/30 12:10:48;;;;;;;4.40;1.73;;;17.10;51.40;;;;;;5102518;27;45365;-73
2023/03/30 12:13:15;;;;;;;4.00;1.60;;;17.20;51.50;;;;;;5088228;27;47562;-73
2023/03/30 12:15:45;;;;;;;2.58;1.58;;;17.40;51.30;;;;;;5087522;27;45249;-73
2023/03/30 12:18:19;;;;;;;3.40;1.27;;;17.50;51.00;;;;;;5088408;27;45338;-73
2023/03/30 12:20:48;;;;;;;2.38;1.10;;;17.60;50.50;;;;;;5079369;27;45471;-73
2023/03/30 12:23:20;;;;;;;2.08;1.60;;;17.60;50.30;;;;;;5081289;27;46437;-73
2023/03/30 12:25:54;;;;;;;4.85;1.92;;;17.60;50.40;;;;;;5084756;27;45516;-73
2023/03/30 12:28:23;;;;;;;3.78;1.40;;;17.60;50.50;;;;;;5086532;27;45371;-73
2023/03/30 12:30:56;;;;;;;6.90;1.80;;;17.60;50.50;;;;;;5088128;27;45389;-72
2023/03/30 12:33:27;;;;;;;3.97;1.35;;;17.50;50.50;;;;;;5086210;27;45353;-73
2023/03/30 12:35:56;;;;;;;2.70;1.50;;;17.50;50.80;;;;;;5085011;28;45394;-72
2023/03/30 12:38:24;;;;;;;1.63;1.30;;;17.50;51.10;;;;;;5085053;28;44620;-73
2023/03/30 12:40:55;;;;;;;3.58;1.45;;;17.50;51.00;;;;;;5087431;28;45353;-73
2023/03/30 12:43:24;;;;;;;1.83;1.27;;;17.50;50.90;;;;;;5094242;28;47309;-74
2023/03/30 12:46:00;;;;;;;4.60;1.45;;;17.50;50.80;;;;;;5086963;28;45506;-72
2023/03/30 12:48:35;;;;;;;3.42;1.58;;;17.50;50.90;;;;;;5088333;28;45394;-71
2023/03/30 12:51:07;;;;;;;1.67;1.40;;;17.50;50.80;;;;;;5088578;28;45339;-72
2023/03/30 12:54:13;;;;;;;2.08;1.40;;;17.50;51.00;;;;;;5088142;28;45299;-72
2023/03/30 12:56:45;;;;;;;2.10;1.33;;;17.50;51.10;;;;;;5039926;28;45324;-72
2023/03/30 12:59:29;;;;;;;1.75;1.40;;;17.50;50.90;;;;;;5088134;28;45346;-71
2023/03/30 13:02:27;;;;;;;2.45;1.30;;;17.50;50.80;;;;;;5087037;28;45462;-71